Time;durP1;ratioP1;P1;durP2;ratioP2;P2;SDS_P1;SDS_P2;PMS_P1;PMS_P2;Temp;Humidity;BMP_temperature;BMP_pressure;BME280_temperature;BME280_humidity;BME280_pressure;Samples;Min_cycle;Max_cycle;Signal;HPM_P1;HPM_P2
2022/07/15 00:00:50;;;;;;;6.53;3.10;;;;;;;16.47;63.14;100348.23;3434576;84;98506;-81
2022/07/15 00:05:51;;;;;;;9.50;3.20;;;;;;;16.27;62.33;100340.95;3420957;85;98659;-81
2022/07/15 00:10:52;;;;;;;8.43;2.90;;;;;;;16.21;62.83;100344.00;3441896;84;98785;-81
2022/07/15 00:15:53;;;;;;;8.43;2.90;;;;;;;16.18;62.89;100347.02;3430137;85;98832;-81
2022/07/15 00:20:54;;;;;;;6.78;2.62;;;;;;;16.19;63.49;100350.59;3401318;84;98773;-81
2022/07/15 00:25:55;;;;;;;6.70;2.00;;;;;;;16.18;63.70;100353.95;3425536;84;98914;-81
2022/07/15 00:30:56;;;;;;;7.75;2.45;;;;;;;16.18;63.69;100357.35;3445747;84;98536;-80
2022/07/15 00:35:57;;;;;;;2.83;1.52;;;;;;;16.15;63.63;100359.56;3446175;84;98770;-81
2022/07/15 00:40:58;;;;;;;3.58;1.60;;;;;;;16.10;63.83;100366.95;3425616;84;98690;-81
2022/07/15 00:45:59;;;;;;;6.60;2.10;;;;;;;16.09;64.10;100359.84;3448696;84;98894;-80
2022/07/15 00:51:00;;;;;;;5.83;2.03;;;;;;;16.09;64.53;100364.00;3485279;84;98853;-80
2022/07/15 00:56:03;;;;;;;8.20;1.90;;;;;;;16.12;64.58;100372.87;3458947;84;98789;-80
2022/07/15 01:01:04;;;;;;;5.50;1.90;;;;;;;16.09;64.59;100381.42;3480412;84;98602;-81
2022/07/15 01:06:06;;;;;;;7.80;1.72;;;;;;;15.99;64.62;100374.62;3484105;84;98737;-81
2022/07/15 01:11:07;;;;;;;6.07;1.70;;;;;;;15.96;64.54;100373.46;3454750;84;98887;-81
2022/07/15 01:16:08;;;;;;;5.60;1.73;;;;;;;15.96;64.71;100382.41;3489537;84;98800;-81
2022/07/15 01:21:09;;;;;;;5.30;1.40;;;;;;;15.98;64.93;100383.54;3473308;84;98773;-81
2022/07/15 01:26:12;;;;;;;3.02;1.40;;;;;;;15.97;65.03;100380.58;3476289;83;98875;-81
2022/07/15 01:31:14;;;;;;;4.17;1.30;;;;;;;15.94;65.09;100376.47;3459351;84;98387;-81
2022/07/15 01:36:15;;;;;;;3.67;1.20;;;;;;;15.92;64.62;100375.48;3495636;84;98433;-81
2022/07/15 01:41:17;;;;;;;4.97;1.30;;;;;;;15.93;64.88;100375.70;3464196;84;98627;-81
2022/07/15 01:46:18;;;;;;;3.33;0.78;;;;;;;15.93;64.97;100381.25;3462918;84;98855;-80
2022/07/15 01:51:19;;;;;;;2.23;1.00;;;;;;;15.89;64.82;100383.27;3442123;85;98874;-81
2022/07/15 01:56:20;;;;;;;3.30;0.97;;;;;;;15.87;65.01;100389.81;3451590;85;98899;-80
2022/07/15 02:01:21;;;;;;;3.43;1.20;;;;;;;15.85;64.94;100394.20;3440036;85;98396;-81
2022/07/15 02:06:22;;;;;;;2.57;0.97;;;;;;;15.82;64.93;100389.49;3462048;85;33021;-81
2022/07/15 02:11:23;;;;;;;1.87;0.73;;;;;;;15.65;65.04;100392.63;3451235;84;98697;-81
2022/07/15 02:16:26;;;;;;;2.40;0.70;;;;;;;15.60;65.34;100397.23;3454209;85;98873;-81
2022/07/15 02:21:28;;;;;;;4.97;1.20;;;;;;;15.60;65.75;100401.39;3450392;84;99323;-81
2022/07/15 02:26:29;;;;;;;5.78;1.62;;;;;;;15.56;65.87;100398.47;3462293;84;98925;-81
2022/07/15 02:31:30;;;;;;;4.23;0.80;;;;;;;15.50;65.79;100402.89;3430194;85;98861;-81
2022/07/15 02:36:32;;;;;;;4.77;0.80;;;;;;;15.41;66.39;100403.37;3455963;84;98543;-81
2022/07/15 02:41:33;;;;;;;4.37;1.17;;;;;;;15.37;66.91;100405.38;3477055;85;98629;-81
2022/07/15 02:46:34;;;;;;;6.60;1.07;;;;;;;15.30;66.88;100424.02;3452268;84;98857;-81
2022/07/15 02:51:35;;;;;;;4.03;1.10;;;;;;;14.99;66.69;100425.84;3470361;84;99006;-81
2022/07/15 02:56:36;;;;;;;5.90;1.13;;;;;;;14.76;67.18;100424.80;3483437;84;98908;-81
2022/07/15 03:01:37;;;;;;;3.90;1.07;;;;;;;14.58;67.93;100427.69;3490022;84;98784;-81
2022/07/15 03:06:39;;;;;;;4.43;1.43;;;;;;;14.47;68.48;100430.31;3459412;84;98595;-81
2022/07/15 03:11:40;;;;;;;5.47;1.40;;;;;;;14.39;68.79;100445.39;3473405;84;98623;-81
2022/07/15 03:16:41;;;;;;;4.70;1.10;;;;;;;14.14;69.30;100436.34;3476569;84;98840;-81
2022/07/15 03:21:42;;;;;;;3.00;1.17;;;;;;;14.24;69.42;100443.86;3471667;84;98780;-81
2022/07/15 03:26:43;;;;;;;3.62;1.00;;;;;;;14.29;69.89;100451.75;3482396;83;98934;-81
2022/07/15 03:31:45;;;;;;;4.43;1.30;;;;;;;14.19;69.99;100456.14;3441457;85;98869;-82
2022/07/15 03:36:46;;;;;;;6.28;1.35;;;;;;;14.02;70.06;100463.07;3435251;84;99090;-81
2022/07/15 03:41:47;;;;;;;6.63;1.87;;;;;;;13.75;70.81;100468.84;3444645;84;98706;-82
2022/07/15 03:46:48;;;;;;;8.45;2.67;;;;;;;13.55;71.19;100471.23;3415567;84;99040;-82
2022/07/15 03:51:49;;;;;;;6.07;1.40;;;;;;;13.50;71.80;100476.36;3391460;87;98945;-82
2022/07/15 03:56:50;;;;;;;7.20;1.62;;;;;;;13.39;72.44;100470.03;3398907;84;98784;-82
2022/07/15 04:01:52;;;;;;;4.87;1.07;;;;;;;13.26;72.94;100473.80;3401772;85;98870;-80
2022/07/15 04:06:53;;;;;;;6.25;1.47;;;;;;;13.22;73.40;100477.73;3405918;85;98451;-82
2022/07/15 04:11:54;;;;;;;11.15;2.52;;;;;;;13.22;73.75;100481.88;3396356;83;98727;-84
2022/07/15 04:16:55;;;;;;;9.60;1.80;;;;;;;13.19;74.31;100476.54;3370258;85;98905;-86
2022/07/15 04:21:56;;;;;;;7.07;1.53;;;;;;;13.20;74.49;100472.59;3403903;85;98859;-83
2022/07/15 04:26:57;;;;;;;10.60;2.00;;;;;;;13.18;75.14;100479.69;3424073;84;98788;-84
2022/07/15 04:31:58;;;;;;;11.23;3.00;;;;;;;13.28;75.64;100477.53;3397775;85;98937;-85
2022/07/15 04:37:00;;;;;;;6.67;1.50;;;;;;;13.29;76.19;100481.30;3397800;85;99043;-88
2022/07/15 04:42:01;;;;;;;8.80;1.83;;;;;;;13.26;76.75;100482.67;3389811;85;98715;-85
2022/07/15 04:47:05;;;;;;;5.23;1.63;;;;;;;13.26;76.23;100476.56;3390493;84;98873;-85
2022/07/15 04:52:06;;;;;;;3.98;1.20;;;;;;;13.31;76.55;100479.52;3392203;85;98762;-84
2022/07/15 04:57:07;;;;;;;4.97;1.53;;;;;;;13.39;76.86;100482.48;3411611;85;98792;-84
2022/07/15 05:02:08;;;;;;;7.70;2.33;;;;;;;13.51;76.71;100481.50;3430783;86;98841;-85
2022/07/15 05:07:09;;;;;;;5.50;1.50;;;;;;;13.63;76.80;100484.47;3423099;85;98924;-84
2022/07/15 05:12:10;;;;;;;6.13;1.70;;;;;;;13.72;76.78;100494.52;3400139;84;98559;-85
2022/07/15 05:17:11;;;;;;;6.67;2.20;;;;;;;13.79;76.67;100500.07;3389420;84;98653;-85
2022/07/15 05:22:12;;;;;;;5.90;1.20;;;;;;;13.90;76.59;100503.00;3408045;85;98875;-84
2022/07/15 05:27:13;;;;;;;8.57;1.43;;;;;;;14.12;76.54;100509.31;3383940;84;98918;-84
2022/07/15 05:32:14;;;;;;;5.77;1.80;;;;;;;14.41;76.20;100503.33;3451233;85;98843;-83
2022/07/15 05:37:15;;;;;;;9.47;1.30;;;;;;;14.93;75.86;100505.68;3443430;84;98507;-83
2022/07/15 05:42:16;;;;;;;6.70;1.77;;;;;;;15.44;74.38;100515.48;3442385;84;98431;-83
2022/07/15 05:47:17;;;;;;;8.70;1.70;;;;;;;16.03;73.10;100507.25;3387818;85;98890;-85
2022/07/15 05:52:18;;;;;;;10.77;2.00;;;;;;;16.47;71.35;100514.14;3394803;86;98892;-84
2022/07/15 05:57:20;;;;;;;6.75;1.55;;;;;;;16.84;69.55;100514.09;3389461;85;98989;-83
2022/07/15 06:02:21;;;;;;;11.10;1.62;;;;;;;17.33;69.21;100516.95;3398308;85;98971;-85
2022/07/15 06:07:22;;;;;;;9.93;1.35;;;;;;;17.93;65.99;100525.15;3393167;85;99160;-83
2022/07/15 06:12:23;;;;;;;7.72;1.60;;;;;;;18.32;64.63;100520.31;3394504;86;31644;-83
2022/07/15 06:17:24;;;;;;;6.87;1.32;;;;;;;18.50;63.85;100532.70;3394547;84;98899;-82
2022/07/15 06:22:25;;;;;;;7.40;1.30;;;;;;;18.87;63.78;100542.11;3416008;85;98893;-85
2022/07/15 06:27:26;;;;;;;7.00;1.75;;;;;;;19.28;61.21;100543.02;3385374;86;98903;-83
2022/07/15 06:32:28;;;;;;;6.92;1.17;;;;;;;19.20;60.69;100540.98;3430571;86;98880;-83
2022/07/15 06:37:29;;;;;;;5.17;1.25;;;;;;;18.96;59.50;100550.66;3423656;85;98884;-82
2022/07/15 06:42:30;;;;;;;6.35;1.92;;;;;;;19.02;60.43;100550.95;3426723;85;29796;-81
2022/07/15 06:47:31;;;;;;;8.95;1.85;;;;;;;19.03;59.80;100564.45;3413838;85;98731;-81
2022/07/15 06:52:32;;;;;;;7.42;1.35;;;;;;;19.11;59.21;100574.85;3420668;85;98823;-80
2022/07/15 06:57:33;;;;;;;5.92;1.85;;;;;;;19.01;59.41;100575.89;3424306;85;98956;-82
2022/07/15 07:02:35;;;;;;;5.33;0.95;;;;;;;19.37;58.85;100571.92;3424805;86;98920;-82
2022/07/15 07:07:35;;;;;;;5.20;0.95;;;;;;;19.38;56.91;100581.07;3412528;85;98850;-82
2022/07/15 07:12:37;;;;;;;6.25;0.90;;;;;;;19.37;56.61;100586.48;3431007;86;28441;-83
2022/07/15 07:17:37;;;;;;;5.83;1.52;;;;;;;19.53;56.34;100587.91;3405796;86;98940;-84
2022/07/15 07:22:39;;;;;;;5.72;1.15;;;;;;;19.96;55.68;100591.28;3420710;85;98863;-83
2022/07/15 07:27:40;;;;;;;5.20;1.45;;;;;;;20.21;54.69;100583.87;3425303;85;98903;-82
2022/07/15 07:32:41;;;;;;;5.03;1.12;;;;;;;20.58;54.08;100586.08;3395122;86;99234;-82
2022/07/15 07:37:42;;;;;;;4.00;0.90;;;;;;;20.93;52.49;100585.74;3420326;85;99168;-82
2022/07/15 07:42:44;;;;;;;4.33;1.20;;;;;;;21.15;51.73;100584.66;3424178;86;34853;-81
2022/07/15 07:47:45;;;;;;;4.28;0.90;;;;;;;21.26;50.06;100594.16;3428578;84;99044;-82
2022/07/15 07:52:46;;;;;;;7.10;1.62;;;;;;;21.35;50.84;100596.47;3423903;86;97901;-81
2022/07/15 07:57:51;;;;;;;6.83;1.75;;;;;;;21.27;49.40;100602.13;3415616;85;98886;-82
2022/07/15 08:02:54;;;;;;;4.65;1.10;;;;;;;21.03;48.73;100605.64;3424577;85;98911;-81
2022/07/15 08:08:19;;;;;;;6.92;1.37;;;;;;;20.80;49.52;100608.64;3393421;84;99062;-82
2022/07/15 08:13:23;;;;;;;3.67;0.70;;;;;;;20.64;49.10;100612.88;3409994;86;25821;-83
2022/07/15 08:18:25;;;;;;;3.45;0.70;;;;;;;20.38;50.13;100616.17;3414695;85;98585;-81
2022/07/15 08:23:26;;;;;;;6.60;1.42;;;;;;;20.56;50.19;100613.71;3421093;85;98640;-83
2022/07/15 08:28:27;;;;;;;5.22;1.10;;;;;;;20.61;50.18;100620.14;3418955;84;98992;-83
2022/07/15 08:33:29;;;;;;;4.47;0.95;;;;;;;20.50;48.99;100616.08;3437683;85;98891;-82
2022/07/15 08:38:30;;;;;;;4.65;1.07;;;;;;;20.23;49.35;100631.75;3436047;85;98969;-82
2022/07/15 08:43:32;;;;;;;5.65;0.82;;;;;;;20.16;49.52;100635.33;3423511;85;98916;-82
2022/07/15 08:48:40;;;;;;;3.65;0.78;;;;;;;19.97;49.99;100636.95;3425202;85;98974;-84
2022/07/15 08:53:43;;;;;;;2.80;0.85;;;;;;;20.18;49.52;100632.87;3424166;86;98783;-82
2022/07/15 08:58:46;;;;;;;4.58;1.20;;;;;;;20.06;49.82;100641.92;3424027;85;99048;-82
2022/07/15 09:03:47;;;;;;;5.65;1.35;;;;;;;20.21;49.21;100637.59;3418331;86;99061;-82
2022/07/15 09:08:48;;;;;;;6.85;1.10;;;;;;;20.56;49.01;100645.07;3424742;85;98813;-82
2022/07/15 09:13:49;;;;;;;4.78;0.82;;;;;;;20.67;49.20;100648.38;3423896;85;98792;-82
2022/07/15 09:18:50;;;;;;;4.22;0.85;;;;;;;20.96;48.26;100650.00;3421161;85;98526;-83
2022/07/15 09:23:53;;;;;;;5.75;0.90;;;;;;;20.94;48.66;100648.87;3424602;86;98659;-82
2022/07/15 09:28:56;;;;;;;4.40;0.80;;;;;;;21.20;48.78;100644.93;3425423;84;98794;-82
2022/07/15 09:34:02;;;;;;;5.90;0.90;;;;;;;21.70;46.98;100643.02;3437744;85;98808;-83
2022/07/15 09:39:05;;;;;;;5.22;0.98;;;;;;;21.70;45.84;100637.41;3424647;85;99083;-82
2022/07/15 09:44:19;;;;;;;3.65;0.60;;;;;;;21.94;46.55;100642.88;3442564;85;98813;-82
2022/07/15 09:49:29;;;;;;;3.40;1.00;;;;;;;22.21;46.46;100640.99;3422347;84;98540;-84
2022/07/15 09:54:48;;;;;;;3.70;0.80;;;;;;;22.13;44.15;100638.27;3457660;85;25884;-84
2022/07/15 09:59:51;;;;;;;5.87;0.90;;;;;;;22.04;43.44;100644.55;3427641;85;98761;-83
2022/07/15 10:04:52;;;;;;;11.45;1.65;;;;;;;22.07;45.05;100647.08;3456126;85;98701;-86
2022/07/15 10:09:54;;;;;;;4.15;1.12;;;;;;;22.37;44.25;100655.67;3420621;85;99016;-84
2022/07/15 10:15:42;;;;;;;2.98;0.93;;;;;;;22.50;42.94;100657.85;3440165;85;98925;-82
2022/07/15 10:21:03;;;;;;;2.75;0.90;;;;;;;22.42;43.44;100668.33;3424251;84;98881;-81
2022/07/15 10:26:37;;;;;;;8.28;1.22;;;;;;;22.96;44.78;100654.23;3442663;84;99247;-82
2022/07/15 10:31:40;;;;;;;7.15;1.17;;;;;;;23.30;42.52;100661.84;3443349;84;98873;-80
2022/07/15 10:36:49;;;;;;;2.47;0.70;;;;;;;23.61;43.68;100667.67;3445746;84;104041;-81
2022/07/15 10:41:58;;;;;;;3.83;1.40;;;;;;;23.83;42.91;100665.61;3440586;84;98932;-81
2022/07/15 10:47:18;;;;;;;5.03;1.20;;;;;;;23.94;42.42;100662.39;3407642;84;98858;-82
2022/07/15 10:52:27;;;;;;;4.15;1.10;;;;;;;23.83;42.03;100667.02;3395354;84;98989;-81
2022/07/15 10:57:50;;;;;;;5.55;1.30;;;;;;;23.47;41.74;100671.02;3425764;85;98984;-81
2022/07/15 11:03:12;;;;;;;7.75;1.20;;;;;;;23.31;41.98;100669.02;3422409;85;98936;-82
2022/07/15 11:08:39;;;;;;;6.58;1.10;;;;;;;23.57;42.41;100665.62;3388387;85;98775;-80
2022/07/15 11:13:46;;;;;;;6.00;1.17;;;;;;;23.44;40.44;100652.89;3420672;86;99260;-82
2022/07/15 11:18:50;;;;;;;4.87;1.00;;;;;;;23.28;41.77;100665.73;3428465;85;98541;-82
2022/07/15 11:23:53;;;;;;;6.20;0.80;;;;;;;23.30;41.36;100668.86;3436531;85;98662;-82
2022/07/15 11:28:59;;;;;;;4.60;0.90;;;;;;;23.19;41.06;100668.47;3413795;84;99084;-82
2022/07/15 11:34:00;;;;;;;;;;;;;;;23.11;41.06;100663.69;3429219;85;99273;-83
2022/07/15 11:39:01;;;;;;;7.25;1.00;;;;;;;23.68;40.96;100662.38;3405583;85;85473;-82
2022/07/15 11:49:34;;;;;;;7.42;2.02;;;;;;;23.63;40.82;100667.19;3418262;84;98936;-82
2022/07/15 11:54:38;;;;;;;5.12;0.75;;;;;;;23.92;40.79;100663.48;3397908;86;25988;-82
2022/07/15 11:59:40;;;;;;;3.85;0.80;;;;;;;23.99;39.60;100669.62;3423153;84;99082;-82
2022/07/15 12:04:42;;;;;;;3.10;0.80;;;;;;;24.00;39.41;100666.95;3430065;86;99134;-82
2022/07/15 12:09:50;;;;;;;3.75;1.17;;;;;;;24.00;39.85;100666.95;3423316;85;99083;-83
2022/07/15 12:14:52;;;;;;;4.00;0.72;;;;;;;23.92;38.84;100667.70;3432799;85;98799;-83
2022/07/15 12:19:53;;;;;;;4.47;1.15;;;;;;;23.85;38.77;100668.73;3413504;84;98954;-83
2022/07/15 12:24:54;;;;;;;4.17;0.75;;;;;;;23.96;38.32;100657.08;3397425;84;34864;-83
2022/07/15 12:30:02;;;;;;;4.70;0.80;;;;;;;23.75;38.77;100660.73;3423439;85;99119;-84
2022/07/15 12:35:06;;;;;;;4.40;0.75;;;;;;;23.75;38.50;100665.70;3411919;85;99141;-82
2022/07/15 12:40:13;;;;;;;1.85;0.60;;;;;;;23.45;37.79;100667.09;3433978;85;98724;-83
2022/07/15 12:45:20;;;;;;;5.83;1.07;;;;;;;23.62;38.96;100679.08;3423768;86;99298;-84
2022/07/15 12:50:22;;;;;;;6.95;1.10;;;;;;;23.71;37.42;100671.31;3413419;85;99407;-83
2022/07/15 12:55:27;;;;;;;3.67;0.80;;;;;;;24.02;37.91;100674.91;3456946;85;99322;-83
2022/07/15 13:00:29;;;;;;;;;;;;;;;23.80;37.02;100669.94;3454351;84;98640;-83
2022/07/15 13:05:40;;;;;;;2.77;0.90;;;;;;;23.79;37.55;100669.78;3444150;85;85345;-85
2022/07/15 13:10:45;;;;;;;6.75;1.27;;;;;;;24.24;38.05;100660.94;3422810;84;98791;-83
2022/07/15 13:15:47;;;;;;;4.22;0.90;;;;;;;24.49;37.80;100654.28;3433445;85;99224;-83
2022/07/15 13:20:49;;;;;;;4.72;1.12;;;;;;;24.73;37.65;100660.28;3433335;84;98827;-83
2022/07/15 13:25:51;;;;;;;5.28;0.88;;;;;;;25.04;37.53;100658.11;3416977;85;98871;-84
2022/07/15 13:30:52;;;;;;;5.42;1.00;;;;;;;25.12;35.58;100659.34;3429306;85;98579;-84
2022/07/15 13:35:57;;;;;;;5.55;1.30;;;;;;;25.20;35.79;100660.61;3417044;85;98678;-82
2022/07/15 13:40:57;;;;;;;5.20;1.10;;;;;;;24.95;35.79;100664.37;3438829;85;98633;-83
2022/07/15 13:45:58;;;;;;;4.90;0.90;;;;;;;24.64;35.19;100659.50;3418153;85;98830;-82
2022/07/15 13:56:19;;;;;;;2.58;0.80;;;;;;;24.74;35.78;100664.66;3445539;85;98894;-82
2022/07/15 14:01:20;;;;;;;2.83;0.90;;;;;;;24.81;36.07;100682.67;3426979;85;98664;-82
2022/07/15 14:06:21;;;;;;;4.65;1.05;;;;;;;24.79;34.75;100675.30;3434366;85;98760;-82
2022/07/15 14:11:22;;;;;;;3.25;1.20;;;;;;;24.54;34.85;100662.90;3440155;85;99051;-82
2022/07/15 14:16:23;;;;;;;7.47;1.30;;;;;;;24.37;35.61;100659.41;3419665;85;98911;-81
2022/07/15 14:21:24;;;;;;;5.92;1.02;;;;;;;24.41;34.82;100667.09;3426538;85;98784;-82
2022/07/15 14:26:25;;;;;;;4.85;1.00;;;;;;;24.26;35.54;100675.95;3418752;84;99006;-82
2022/07/15 14:31:26;;;;;;;2.05;0.72;;;;;;;24.25;35.18;100666.72;3442383;85;98924;-83
2022/07/15 14:36:27;;;;;;;5.65;0.90;;;;;;;23.92;35.44;100668.47;3402592;84;98974;-81
2022/07/15 14:41:28;;;;;;;5.80;0.95;;;;;;;23.92;35.78;100667.70;3434250;85;98671;-81
2022/07/15 14:46:29;;;;;;;4.75;0.65;;;;;;;23.98;36.38;100675.05;3427939;84;99712;-82
2022/07/15 14:51:30;;;;;;;2.33;0.53;;;;;;;23.98;36.06;100665.86;3421617;85;99301;-83
2022/07/15 14:56:32;;;;;;;4.60;0.93;;;;;;;23.79;36.38;100667.77;3425816;85;99220;-83
2022/07/15 15:01:33;;;;;;;3.12;0.80;;;;;;;23.84;36.43;100659.34;3442578;85;98927;-83
2022/07/15 15:06:34;;;;;;;3.47;0.93;;;;;;;23.88;35.89;100665.03;3434052;85;98814;-81
2022/07/15 15:11:36;;;;;;;3.25;0.88;;;;;;;23.78;36.25;100671.03;3429044;85;98627;-82
2022/07/15 15:16:37;;;;;;;3.22;0.80;;;;;;;23.83;35.76;100664.81;3434561;85;99262;-81
2022/07/15 15:21:38;;;;;;;2.27;0.70;;;;;;;23.81;35.80;100672.94;3415306;85;99125;-82
2022/07/15 15:26:40;;;;;;;4.40;0.80;;;;;;;23.77;36.06;100675.09;3432526;84;98940;-81
2022/07/15 15:31:42;;;;;;;4.15;0.70;;;;;;;23.75;36.42;100687.42;3444804;85;98025;-82
2022/07/15 15:36:43;;;;;;;4.80;1.00;;;;;;;23.57;36.07;100685.89;3430955;85;100417;-82
2022/07/15 15:41:44;;;;;;;5.62;1.50;;;;;;;23.41;36.08;100681.89;3440315;85;98215;-82
2022/07/15 15:46:45;;;;;;;4.72;0.90;;;;;;;23.35;36.48;100681.70;3437538;85;98769;-82
2022/07/15 15:51:46;;;;;;;6.30;1.15;;;;;;;23.25;35.98;100676.47;3418912;85;98916;-81
2022/07/15 15:56:48;;;;;;;3.15;1.32;;;;;;;23.07;36.60;100677.70;3395803;85;99361;-81
2022/07/15 16:01:49;;;;;;;4.30;0.82;;;;;;;23.00;36.81;100673.76;3442550;85;98867;-81
2022/07/15 16:06:50;;;;;;;2.33;0.90;;;;;;;23.01;36.49;100672.52;3420186;85;98962;-82
2022/07/15 16:11:51;;;;;;;4.20;0.93;;;;;;;22.81;36.09;100675.62;3425966;86;98654;-85
2022/07/15 16:16:58;;;;;;;2.95;0.78;;;;;;;22.71;36.26;100676.77;3436309;85;98862;-83
2022/07/15 16:27:15;;;;;;;3.92;0.90;;;;;;;22.50;36.80;100671.11;3403783;84;99173;-83
2022/07/15 16:32:16;;;;;;;4.25;1.10;;;;;;;22.30;37.14;100666.34;3441885;86;99310;-82
2022/07/15 16:37:17;;;;;;;2.98;1.17;;;;;;;22.14;37.00;100663.66;3430840;85;98761;-82
2022/07/15 16:42:19;;;;;;;2.92;1.00;;;;;;;21.98;37.16;100660.37;3423262;86;99406;-82
2022/07/15 16:47:20;;;;;;;4.95;1.10;;;;;;;21.83;37.16;100664.84;3425751;85;98877;-83
2022/07/15 16:52:21;;;;;;;6.83;1.10;;;;;;;21.65;37.45;100670.78;3445113;85;98971;-81
2022/07/15 16:57:23;;;;;;;5.80;1.05;;;;;;;21.41;37.41;100673.72;3433860;85;99241;-82
2022/07/15 17:02:24;;;;;;;5.30;0.95;;;;;;;21.24;37.77;100674.98;3422019;85;98928;-82
2022/07/15 17:07:28;;;;;;;6.80;1.30;;;;;;;21.11;38.18;100674.17;3427078;84;99254;-82
2022/07/15 17:12:29;;;;;;;5.08;1.00;;;;;;;21.06;38.79;100676.11;3433360;85;32597;-81
2022/07/15 17:17:30;;;;;;;4.80;1.10;;;;;;;20.99;38.91;100679.11;3421570;85;98940;-83
2022/07/15 17:22:33;;;;;;;3.65;0.90;;;;;;;20.80;38.65;100675.79;3416543;85;98926;-82
2022/07/15 17:27:34;;;;;;;3.37;0.82;;;;;;;20.67;39.29;100681.34;3396468;85;98907;-82
2022/07/15 17:32:36;;;;;;;4.25;1.00;;;;;;;20.48;38.96;100680.81;3417323;85;98767;-83
2022/07/15 17:37:37;;;;;;;4.65;0.85;;;;;;;20.33;39.83;100678.19;3433644;83;99016;-82
2022/07/15 17:42:39;;;;;;;3.58;0.80;;;;;;;20.24;39.60;100668.25;3428363;85;32684;-82
2022/07/15 17:47:40;;;;;;;1.85;0.70;;;;;;;20.16;39.51;100675.84;3410868;85;99007;-84
2022/07/15 17:52:42;;;;;;;6.25;1.37;;;;;;;20.12;40.13;100666.76;3442314;84;98111;-82
2022/07/15 17:57:43;;;;;;;5.20;0.90;;;;;;;20.03;40.27;100667.93;3410286;85;98917;-83
2022/07/15 18:02:44;;;;;;;4.05;0.70;;;;;;;19.97;39.93;100669.08;3424203;86;99265;-86
2022/07/15 18:07:45;;;;;;;5.37;0.95;;;;;;;19.88;40.10;100671.67;3395833;85;98972;-83
2022/07/15 18:12:47;;;;;;;4.33;0.88;;;;;;;19.81;40.18;100673.83;3401522;86;32492;-83
2022/07/15 18:17:48;;;;;;;3.65;0.90;;;;;;;19.68;40.43;100683.48;3413329;86;99054;-83
2022/07/15 18:22:49;;;;;;;6.10;1.02;;;;;;;19.55;40.99;100675.60;3425219;86;98602;-82
2022/07/15 18:27:50;;;;;;;5.22;1.00;;;;;;;19.41;41.12;100672.33;3420305;84;98862;-81
2022/07/15 18:32:51;;;;;;;5.20;0.98;;;;;;;19.31;41.82;100674.13;3394541;86;98854;-83
2022/07/15 18:37:52;;;;;;;2.72;0.60;;;;;;;19.17;41.95;100672.98;3418345;85;99291;-82
2022/07/15 18:42:53;;;;;;;2.22;0.70;;;;;;;19.01;41.91;100676.31;3438471;86;32472;-83
2022/07/15 18:47:54;;;;;;;3.77;0.98;;;;;;;18.90;42.96;100677.09;3410746;85;98902;-83
2022/07/15 18:52:55;;;;;;;4.45;1.00;;;;;;;18.79;43.00;100684.27;3426010;85;99005;-83
2022/07/15 18:57:56;;;;;;;3.08;0.80;;;;;;;18.68;43.04;100695.42;3418020;85;98891;-83
2022/07/15 19:02:58;;;;;;;4.35;1.00;;;;;;;18.53;43.81;100695.51;3418841;86;99264;-83
2022/07/15 19:07:59;;;;;;;5.40;1.50;;;;;;;18.41;44.17;100691.91;3382745;85;99264;-83
2022/07/15 19:13:00;;;;;;;5.62;1.17;;;;;;;18.27;44.03;100693.52;3425582;86;29653;-83
2022/07/15 19:18:02;;;;;;;4.37;1.15;;;;;;;18.13;44.38;100690.94;3425101;85;99135;-83
2022/07/15 19:23:04;;;;;;;4.78;0.93;;;;;;;17.99;44.76;100689.78;3424830;86;99032;-82
2022/07/15 19:28:07;;;;;;;5.33;1.00;;;;;;;17.65;45.67;100676.55;3422070;84;98580;-82
2022/07/15 19:33:09;;;;;;;6.97;1.00;;;;;;;17.65;45.67;100676.55;3407384;85;98926;-83
2022/07/15 19:38:10;;;;;;;4.87;1.67;;;;;;;17.65;46.36;100698.83;3370117;86;99210;-82
2022/07/15 19:43:12;;;;;;;3.47;1.30;;;;;;;17.56;47.24;100710.44;3427684;85;32779;-82
2022/07/15 19:48:13;;;;;;;3.17;1.10;;;;;;;17.48;47.53;100713.73;3429067;84;98806;-82
2022/07/15 19:53:14;;;;;;;5.08;1.30;;;;;;;17.41;48.58;100718.80;3441569;85;98613;-82
2022/07/15 19:58:15;;;;;;;5.55;1.17;;;;;;;17.34;49.15;100716.05;3424399;85;98854;-82
2022/07/15 20:03:16;;;;;;;2.90;1.05;;;;;;;17.27;49.99;100714.75;3434640;85;98888;-82
2022/07/15 20:08:18;;;;;;;3.15;0.98;;;;;;;17.20;50.79;100714.84;3460738;85;99225;-80
2022/07/15 20:13:19;;;;;;;5.62;1.07;;;;;;;17.14;51.18;100713.72;3455400;85;30647;-83
2022/07/15 20:18:20;;;;;;;3.90;1.30;;;;;;;17.06;51.92;100707.26;3448539;85;98826;-83
2022/07/15 20:23:21;;;;;;;4.58;1.30;;;;;;;16.99;52.56;100720.62;3449422;85;97939;-82
2022/07/15 20:28:22;;;;;;;4.75;1.27;;;;;;;16.92;53.03;100724.87;3461492;83;98980;-82
2022/07/15 20:33:24;;;;;;;3.67;1.10;;;;;;;16.84;53.44;100723.35;3465008;84;98930;-81
2022/07/15 20:38:26;;;;;;;5.05;1.40;;;;;;;16.74;53.88;100716.52;3461690;84;98934;-82
2022/07/15 20:43:28;;;;;;;5.97;1.20;;;;;;;16.64;54.32;100716.81;3467580;85;99328;-82
2022/07/15 20:48:29;;;;;;;4.15;1.27;;;;;;;16.54;54.67;100718.27;3449366;85;98934;-82
2022/07/15 20:53:30;;;;;;;6.70;1.47;;;;;;;16.44;55.21;100710.81;3424242;85;99003;-82
2022/07/15 20:58:31;;;;;;;4.08;1.30;;;;;;;16.35;55.55;100712.64;3424687;85;98911;-82
2022/07/15 21:03:32;;;;;;;5.83;1.60;;;;;;;16.26;55.72;100713.72;3445188;85;98845;-82
2022/07/15 21:08:34;;;;;;;3.47;1.47;;;;;;;16.19;56.18;100710.97;3438919;84;98954;-83
2022/07/15 21:13:35;;;;;;;3.90;1.32;;;;;;;16.11;56.37;100708.07;3453390;85;98799;-83
2022/07/15 21:18:37;;;;;;;2.80;1.00;;;;;;;16.04;56.66;100712.88;3428529;84;99678;-83
2022/07/15 21:23:38;;;;;;;4.08;1.20;;;;;;;15.93;56.78;100714.34;3424798;85;98684;-83
2022/07/15 21:28:39;;;;;;;5.57;1.90;;;;;;;15.89;57.39;100708.02;3435062;83;98957;-83
2022/07/15 21:33:40;;;;;;;7.35;1.52;;;;;;;15.84;57.66;100702.89;3420282;85;99377;-83
2022/07/15 21:38:42;;;;;;;4.92;1.30;;;;;;;15.84;58.00;100704.86;3439149;85;98880;-83
2022/07/15 21:43:43;;;;;;;4.15;1.50;;;;;;;15.80;58.28;100701.34;3433291;85;98847;-83
2022/07/15 21:48:44;;;;;;;5.70;1.70;;;;;;;15.75;58.63;100703.92;3417258;85;98844;-83
2022/07/15 21:53:46;;;;;;;5.78;1.57;;;;;;;15.75;58.84;100703.15;3438130;84;99010;-83
2022/07/15 21:58:48;;;;;;;10.85;2.77;;;;;;;15.72;59.09;100706.72;3434087;84;98812;-83
2022/07/15 22:03:49;;;;;;;4.67;1.40;;;;;;;15.68;59.30;100707.33;3415484;85;99117;-83
2022/07/15 22:08:50;;;;;;;4.87;1.37;;;;;;;15.67;59.37;100707.14;3427443;84;99278;-82
2022/07/15 22:13:51;;;;;;;7.37;1.90;;;;;;;15.65;59.44;100710.93;3425285;85;99214;-81
2022/07/15 22:18:53;;;;;;;5.08;1.98;;;;;;;15.61;59.84;100709.56;3452169;84;98906;-81
2022/07/15 22:23:54;;;;;;;5.50;1.67;;;;;;;15.60;60.29;100710.73;3450784;85;99087;-81
2022/07/15 22:28:55;;;;;;;9.78;3.02;;;;;;;15.57;60.20;100700.46;3436667;84;99081;-82
2022/07/15 22:33:57;;;;;;;5.15;1.67;;;;;;;15.58;60.49;100702.65;3428421;85;99263;-82
2022/07/15 22:38:58;;;;;;;7.53;2.00;;;;;;;15.56;60.76;100701.66;3415501;85;99045;-82
2022/07/15 22:43:59;;;;;;;5.17;1.77;;;;;;;15.57;61.14;100707.98;3442303;85;99216;-82
2022/07/15 22:49:00;;;;;;;4.12;1.65;;;;;;;15.59;61.35;100703.61;3435908;85;98846;-82
2022/07/15 22:54:01;;;;;;;4.83;1.57;;;;;;;15.57;61.23;100707.39;3428239;84;98676;-82
2022/07/15 22:59:02;;;;;;;3.50;1.40;;;;;;;15.53;61.26;100703.84;3430174;86;99025;-82
2022/07/15 23:04:03;;;;;;;7.35;1.70;;;;;;;15.53;61.51;100705.23;3411160;86;99358;-82
2022/07/15 23:09:05;;;;;;;5.58;1.62;;;;;;;15.53;61.74;100709.39;3421993;84;99347;-82
2022/07/15 23:14:06;;;;;;;5.67;1.40;;;;;;;15.53;61.85;100701.67;3418412;85;98116;-83
2022/07/15 23:19:07;;;;;;;4.95;1.60;;;;;;;15.52;61.69;100710.59;3417231;85;98897;-82
2022/07/15 23:24:08;;;;;;;7.80;2.42;;;;;;;15.51;61.65;100705.44;3410892;86;99023;-83
2022/07/15 23:29:10;;;;;;;3.90;1.60;;;;;;;15.45;61.51;100704.27;3400795;85;98701;-81
2022/07/15 23:34:11;;;;;;;4.10;1.67;;;;;;;15.47;61.80;100701.91;3422792;85;99181;-82
2022/07/15 23:39:12;;;;;;;3.90;1.60;;;;;;;15.42;61.34;100706.48;3429495;85;99026;-82